sensor_id;sensor_type;location;lat;lon;timestamp;P1;durP1;ratioP1;P2;durP2;ratioP2
8048;SDS011;20935;42.660;23.342;2023-07-20T00:02:37;59.90;;;52.17;;
8048;SDS011;20935;42.660;23.342;2023-07-20T00:05:24;61.00;;;52.10;;
8048;SDS011;20935;42.660;23.342;2023-07-20T00:08:09;60.10;;;53.50;;
8048;SDS011;20935;42.660;23.342;2023-07-20T00:10:55;62.07;;;54.37;;
8048;SDS011;20935;42.660;23.342;2023-07-20T00:13:40;60.17;;;53.50;;
8048;SDS011;20935;42.660;23.342;2023-07-20T00:16:26;63.50;;;53.93;;
8048;SDS011;20935;42.660;23.342;2023-07-20T00:19:11;63.17;;;54.63;;
8048;SDS011;20935;42.660;23.342;2023-07-20T00:21:58;65.10;;;53.80;;
8048;SDS011;20935;42.660;23.342;2023-07-20T00:24:44;62.47;;;55.57;;
8048;SDS011;20935;42.660;23.342;2023-07-20T00:27:29;61.03;;;53.67;;
8048;SDS011;20935;42.660;23.342;2023-07-20T00:30:15;64.97;;;55.40;;
8048;SDS011;20935;42.660;23.342;2023-07-20T00:33:01;63.20;;;55.70;;
8048;SDS011;20935;42.660;23.342;2023-07-20T00:35:46;65.07;;;56.33;;
8048;SDS011;20935;42.660;23.342;2023-07-20T00:38:33;60.63;;;53.93;;
8048;SDS011;20935;42.660;23.342;2023-07-20T00:41:18;63.77;;;56.87;;
8048;SDS011;20935;42.660;23.342;2023-07-20T00:44:04;63.03;;;55.23;;
8048;SDS011;20935;42.660;23.342;2023-07-20T00:46:50;63.30;;;56.33;;
8048;SDS011;20935;42.660;23.342;2023-07-20T00:49:35;65.50;;;56.80;;
8048;SDS011;20935;42.660;23.342;2023-07-20T00:52:21;64.63;;;56.87;;
8048;SDS011;20935;42.660;23.342;2023-07-20T00:55:10;67.93;;;56.80;;
8048;SDS011;20935;42.660;23.342;2023-07-20T00:57:55;64.47;;;57.47;;
8048;SDS011;20935;42.660;23.342;2023-07-20T01:00:42;64.10;;;56.70;;
8048;SDS011;20935;42.660;23.342;2023-07-20T01:03:27;63.13;;;55.60;;
8048;SDS011;20935;42.660;23.342;2023-07-20T01:06:18;62.33;;;55.77;;
8048;SDS011;20935;42.660;23.342;2023-07-20T01:09:12;64.10;;;57.03;;
8048;SDS011;20935;42.660;23.342;2023-07-20T01:12:02;65.47;;;57.07;;
8048;SDS011;20935;42.660;23.342;2023-07-20T01:14:52;66.83;;;57.77;;
8048;SDS011;20935;42.660;23.342;2023-07-20T01:17:39;65.00;;;57.40;;
8048;SDS011;20935;42.660;23.342;2023-07-20T01:20:24;64.60;;;56.03;;
8048;SDS011;20935;42.660;23.342;2023-07-20T01:26:34;65.23;;;55.40;;
8048;SDS011;20935;42.660;23.342;2023-07-20T01:29:36;63.27;;;56.30;;
8048;SDS011;20935;42.660;23.342;2023-07-20T01:32:40;62.97;;;55.20;;
8048;SDS011;20935;42.660;23.342;2023-07-20T01:35:28;64.37;;;57.23;;
8048;SDS011;20935;42.660;23.342;2023-07-20T01:38:15;61.97;;;55.17;;
8048;SDS011;20935;42.660;23.342;2023-07-20T01:41:02;63.33;;;56.43;;
8048;SDS011;20935;42.660;23.342;2023-07-20T01:43:48;66.27;;;59.13;;
8048;SDS011;20935;42.660;23.342;2023-07-20T01:46:33;65.90;;;56.17;;
8048;SDS011;20935;42.660;23.342;2023-07-20T01:49:20;64.50;;;56.50;;
8048;SDS011;20935;42.660;23.342;2023-07-20T01:52:06;70.13;;;58.80;;
8048;SDS011;20935;42.660;23.342;2023-07-20T01:54:51;65.83;;;57.23;;
8048;SDS011;20935;42.660;23.342;2023-07-20T01:57:37;61.23;;;54.57;;
8048;SDS011;20935;42.660;23.342;2023-07-20T02:00:23;64.03;;;56.70;;
8048;SDS011;20935;42.660;23.342;2023-07-20T02:03:09;67.13;;;56.93;;
8048;SDS011;20935;42.660;23.342;2023-07-20T02:05:57;66.47;;;56.93;;
8048;SDS011;20935;42.660;23.342;2023-07-20T02:08:42;66.53;;;57.50;;
8048;SDS011;20935;42.660;23.342;2023-07-20T02:11:28;64.03;;;55.43;;
8048;SDS011;20935;42.660;23.342;2023-07-20T02:14:13;67.07;;;56.97;;
8048;SDS011;20935;42.660;23.342;2023-07-20T02:16:59;61.97;;;55.07;;
8048;SDS011;20935;42.660;23.342;2023-07-20T02:19:45;64.73;;;55.80;;
8048;SDS011;20935;42.660;23.342;2023-07-20T02:22:34;68.23;;;58.70;;
8048;SDS011;20935;42.660;23.342;2023-07-20T02:25:19;62.40;;;55.10;;
8048;SDS011;20935;42.660;23.342;2023-07-20T02:28:06;65.27;;;57.77;;
8048;SDS011;20935;42.660;23.342;2023-07-20T02:30:52;65.50;;;58.33;;
8048;SDS011;20935;42.660;23.342;2023-07-20T02:33:37;63.77;;;55.87;;
8048;SDS011;20935;42.660;23.342;2023-07-20T02:36:22;67.63;;;57.83;;
8048;SDS011;20935;42.660;23.342;2023-07-20T02:39:09;64.30;;;57.00;;
8048;SDS011;20935;42.660;23.342;2023-07-20T02:41:55;64.20;;;57.03;;
8048;SDS011;20935;42.660;23.342;2023-07-20T02:44:40;62.80;;;54.77;;
8048;SDS011;20935;42.660;23.342;2023-07-20T02:47:25;64.53;;;56.37;;
8048;SDS011;20935;42.660;23.342;2023-07-20T02:50:11;66.40;;;57.27;;
8048;SDS011;20935;42.660;23.342;2023-07-20T02:52:57;65.07;;;56.70;;
8048;SDS011;20935;42.660;23.342;2023-07-20T02:55:44;64.57;;;56.20;;
8048;SDS011;20935;42.660;23.342;2023-07-20T02:58:33;63.07;;;56.10;;
8048;SDS011;20935;42.660;23.342;2023-07-20T03:01:20;62.33;;;55.50;;
8048;SDS011;20935;42.660;23.342;2023-07-20T03:04:06;65.27;;;57.23;;
8048;SDS011;20935;42.660;23.342;2023-07-20T03:06:53;64.50;;;55.20;;
8048;SDS011;20935;42.660;23.342;2023-07-20T03:09:39;65.00;;;56.40;;
8048;SDS011;20935;42.660;23.342;2023-07-20T03:12:26;66.77;;;57.97;;
8048;SDS011;20935;42.660;23.342;2023-07-20T03:15:12;60.57;;;53.07;;
8048;SDS011;20935;42.660;23.342;2023-07-20T03:17:57;62.20;;;55.53;;
8048;SDS011;20935;42.660;23.342;2023-07-20T03:20:43;64.97;;;57.87;;
8048;SDS011;20935;42.660;23.342;2023-07-20T03:23:28;65.70;;;57.20;;
8048;SDS011;20935;42.660;23.342;2023-07-20T03:26:14;64.30;;;55.80;;
8048;SDS011;20935;42.660;23.342;2023-07-20T03:29:00;65.17;;;55.90;;
8048;SDS011;20935;42.660;23.342;2023-07-20T03:31:46;60.57;;;54.07;;
8048;SDS011;20935;42.660;23.342;2023-07-20T03:34:32;66.47;;;59.00;;
8048;SDS011;20935;42.660;23.342;2023-07-20T03:37:17;64.77;;;55.97;;
8048;SDS011;20935;42.660;23.342;2023-07-20T03:40:03;61.63;;;54.93;;
8048;SDS011;20935;42.660;23.342;2023-07-20T03:42:51;64.37;;;55.77;;
8048;SDS011;20935;42.660;23.342;2023-07-20T03:45:37;65.10;;;57.13;;
8048;SDS011;20935;42.660;23.342;2023-07-20T03:48:24;60.77;;;54.30;;
8048;SDS011;20935;42.660;23.342;2023-07-20T03:51:09;64.33;;;56.17;;
8048;SDS011;20935;42.660;23.342;2023-07-20T03:53:55;61.47;;;53.93;;
8048;SDS011;20935;42.660;23.342;2023-07-20T03:56:40;62.63;;;55.33;;
8048;SDS011;20935;42.660;23.342;2023-07-20T03:59:26;61.53;;;54.80;;
8048;SDS011;20935;42.660;23.342;2023-07-20T04:02:12;60.40;;;53.77;;
8048;SDS011;20935;42.660;23.342;2023-07-20T04:04:57;60.97;;;54.37;;
8048;SDS011;20935;42.660;23.342;2023-07-20T04:07:43;60.07;;;53.27;;
8048;SDS011;20935;42.660;23.342;2023-07-20T04:10:28;62.50;;;54.83;;
8048;SDS011;20935;42.660;23.342;2023-07-20T04:13:14;60.73;;;54.03;;
8048;SDS011;20935;42.660;23.342;2023-07-20T04:15:59;61.03;;;54.00;;
8048;SDS011;20935;42.660;23.342;2023-07-20T04:18:47;60.93;;;54.33;;
8048;SDS011;20935;42.660;23.342;2023-07-20T04:21:32;62.57;;;55.70;;
8048;SDS011;20935;42.660;23.342;2023-07-20T04:24:18;63.17;;;54.80;;
8048;SDS011;20935;42.660;23.342;2023-07-20T04:27:04;63.33;;;55.80;;
8048;SDS011;20935;42.660;23.342;2023-07-20T04:29:49;63.77;;;54.93;;
8048;SDS011;20935;42.660;23.342;2023-07-20T04:32:35;61.87;;;53.77;;
8048;SDS011;20935;42.660;23.342;2023-07-20T04:38:32;63.57;;;56.80;;
8048;SDS011;20935;42.660;23.342;2023-07-20T04:41:18;61.10;;;53.70;;
8048;SDS011;20935;42.660;23.342;2023-07-20T04:44:04;61.37;;;54.67;;
8048;SDS011;20935;42.660;23.342;2023-07-20T04:46:49;63.43;;;56.27;;
8048;SDS011;20935;42.660;23.342;2023-07-20T04:49:35;62.47;;;55.50;;
8048;SDS011;20935;42.660;23.342;2023-07-20T04:52:22;63.27;;;55.30;;
8048;SDS011;20935;42.660;23.342;2023-07-20T04:55:08;62.93;;;56.10;;
8048;SDS011;20935;42.660;23.342;2023-07-20T04:57:53;61.83;;;54.97;;
8048;SDS011;20935;42.660;23.342;2023-07-20T05:00:38;60.47;;;53.87;;
8048;SDS011;20935;42.660;23.342;2023-07-20T05:03:24;71.50;;;55.67;;
8048;SDS011;20935;42.660;23.342;2023-07-20T05:06:10;59.90;;;53.33;;
8048;SDS011;20935;42.660;23.342;2023-07-20T05:08:57;63.23;;;56.40;;
8048;SDS011;20935;42.660;23.342;2023-07-20T05:11:43;64.30;;;56.63;;
8048;SDS011;20935;42.660;23.342;2023-07-20T05:14:29;62.37;;;54.63;;
8048;SDS011;20935;42.660;23.342;2023-07-20T05:17:14;61.97;;;55.33;;
8048;SDS011;20935;42.660;23.342;2023-07-20T05:20:00;63.63;;;56.67;;
8048;SDS011;20935;42.660;23.342;2023-07-20T05:22:46;61.17;;;54.33;;
8048;SDS011;20935;42.660;23.342;2023-07-20T05:25:32;63.87;;;55.87;;
8048;SDS011;20935;42.660;23.342;2023-07-20T05:28:18;63.53;;;56.50;;
8048;SDS011;20935;42.660;23.342;2023-07-20T05:31:04;59.33;;;53.07;;
8048;SDS011;20935;42.660;23.342;2023-07-20T05:33:50;63.03;;;55.90;;
8048;SDS011;20935;42.660;23.342;2023-07-20T05:36:35;64.30;;;56.00;;
8048;SDS011;20935;42.660;23.342;2023-07-20T05:39:35;59.60;;;53.20;;
8048;SDS011;20935;42.660;23.342;2023-07-20T05:42:21;63.47;;;56.57;;
8048;SDS011;20935;42.660;23.342;2023-07-20T05:45:07;64.97;;;57.07;;
8048;SDS011;20935;42.660;23.342;2023-07-20T05:47:53;65.53;;;57.97;;
8048;SDS011;20935;42.660;23.342;2023-07-20T05:50:41;61.37;;;54.70;;
8048;SDS011;20935;42.660;23.342;2023-07-20T05:53:27;64.43;;;57.47;;
8048;SDS011;20935;42.660;23.342;2023-07-20T05:56:13;62.27;;;55.30;;
8048;SDS011;20935;42.660;23.342;2023-07-20T05:59:00;62.83;;;55.87;;
8048;SDS011;20935;42.660;23.342;2023-07-20T06:01:46;63.03;;;56.23;;
8048;SDS011;20935;42.660;23.342;2023-07-20T06:04:32;61.73;;;54.33;;
8048;SDS011;20935;42.660;23.342;2023-07-20T06:07:17;63.67;;;56.13;;
8048;SDS011;20935;42.660;23.342;2023-07-20T06:10:03;64.77;;;55.73;;
8048;SDS011;20935;42.660;23.342;2023-07-20T06:12:50;62.27;;;54.87;;
8048;SDS011;20935;42.660;23.342;2023-07-20T06:15:37;68.00;;;56.77;;
8048;SDS011;20935;42.660;23.342;2023-07-20T06:18:23;61.83;;;55.17;;
8048;SDS011;20935;42.660;23.342;2023-07-20T06:21:08;61.53;;;54.90;;
8048;SDS011;20935;42.660;23.342;2023-07-20T06:23:53;62.60;;;55.70;;
8048;SDS011;20935;42.660;23.342;2023-07-20T06:26:39;62.17;;;55.10;;
8048;SDS011;20935;42.660;23.342;2023-07-20T06:29:25;61.67;;;54.93;;
8048;SDS011;20935;42.660;23.342;2023-07-20T06:32:12;63.20;;;55.43;;
8048;SDS011;20935;42.660;23.342;2023-07-20T06:34:57;60.97;;;54.40;;
8048;SDS011;20935;42.660;23.342;2023-07-20T06:37:43;62.87;;;56.07;;
8048;SDS011;20935;42.660;23.342;2023-07-20T06:40:28;64.13;;;57.27;;
8048;SDS011;20935;42.660;23.342;2023-07-20T06:43:14;62.37;;;55.40;;
8048;SDS011;20935;42.660;23.342;2023-07-20T06:45:59;62.57;;;55.20;;
8048;SDS011;20935;42.660;23.342;2023-07-20T06:48:46;64.93;;;56.90;;
8048;SDS011;20935;42.660;23.342;2023-07-20T06:51:31;62.13;;;55.33;;
8048;SDS011;20935;42.660;23.342;2023-07-20T06:54:17;61.53;;;54.83;;
8048;SDS011;20935;42.660;23.342;2023-07-20T06:57:04;63.67;;;56.43;;
8048;SDS011;20935;42.660;23.342;2023-07-20T06:59:50;63.90;;;56.97;;
8048;SDS011;20935;42.660;23.342;2023-07-20T07:02:36;68.60;;;58.53;;
8048;SDS011;20935;42.660;23.342;2023-07-20T07:05:23;67.93;;;59.17;;
8048;SDS011;20935;42.660;23.342;2023-07-20T07:08:08;65.23;;;56.23;;
8048;SDS011;20935;42.660;23.342;2023-07-20T07:10:53;67.67;;;60.23;;
8048;SDS011;20935;42.660;23.342;2023-07-20T07:13:39;70.53;;;61.80;;
8048;SDS011;20935;42.660;23.342;2023-07-20T07:16:24;69.17;;;59.77;;
8048;SDS011;20935;42.660;23.342;2023-07-20T07:19:10;67.80;;;60.67;;
8048;SDS011;20935;42.660;23.342;2023-07-20T07:21:56;71.40;;;63.77;;
8048;SDS011;20935;42.660;23.342;2023-07-20T07:24:42;72.37;;;64.60;;
8048;SDS011;20935;42.660;23.342;2023-07-20T07:27:27;73.90;;;66.00;;
8048;SDS011;20935;42.660;23.342;2023-07-20T07:30:13;74.80;;;66.70;;
8048;SDS011;20935;42.660;23.342;2023-07-20T07:32:58;73.27;;;65.53;;
8048;SDS011;20935;42.660;23.342;2023-07-20T07:35:43;75.07;;;67.07;;
8048;SDS011;20935;42.660;23.342;2023-07-20T07:38:30;74.80;;;66.90;;
8048;SDS011;20935;42.660;23.342;2023-07-20T07:41:15;76.53;;;68.13;;
8048;SDS011;20935;42.660;23.342;2023-07-20T07:44:01;79.17;;;70.87;;
8048;SDS011;20935;42.660;23.342;2023-07-20T07:46:46;81.10;;;72.80;;
8048;SDS011;20935;42.660;23.342;2023-07-20T07:49:31;82.90;;;74.30;;
8048;SDS011;20935;42.660;23.342;2023-07-20T07:52:17;82.50;;;73.70;;
8048;SDS011;20935;42.660;23.342;2023-07-20T07:55:04;82.20;;;73.50;;
8048;SDS011;20935;42.660;23.342;2023-07-20T07:57:50;87.57;;;78.53;;
8048;SDS011;20935;42.660;23.342;2023-07-20T08:00:36;84.43;;;75.83;;
8048;SDS011;20935;42.660;23.342;2023-07-20T08:03:22;88.33;;;79.20;;
8048;SDS011;20935;42.660;23.342;2023-07-20T08:06:08;85.87;;;77.10;;
8048;SDS011;20935;42.660;23.342;2023-07-20T08:08:53;88.63;;;79.63;;
8048;SDS011;20935;42.660;23.342;2023-07-20T08:11:40;88.00;;;78.97;;
8048;SDS011;20935;42.660;23.342;2023-07-20T08:14:26;90.37;;;80.97;;
8048;SDS011;20935;42.660;23.342;2023-07-20T08:17:12;91.53;;;82.13;;
8048;SDS011;20935;42.660;23.342;2023-07-20T08:19:57;94.00;;;84.40;;
8048;SDS011;20935;42.660;23.342;2023-07-20T08:22:42;91.40;;;82.20;;
8048;SDS011;20935;42.660;23.342;2023-07-20T08:25:28;92.17;;;82.53;;
8048;SDS011;20935;42.660;23.342;2023-07-20T08:28:15;96.97;;;87.00;;
8048;SDS011;20935;42.660;23.342;2023-07-20T08:31:01;98.43;;;88.47;;
8048;SDS011;20935;42.660;23.342;2023-07-20T08:33:47;94.83;;;85.17;;
8048;SDS011;20935;42.660;23.342;2023-07-20T08:36:32;100.97;;;90.67;;
8048;SDS011;20935;42.660;23.342;2023-07-20T08:39:17;99.93;;;89.63;;
8048;SDS011;20935;42.660;23.342;2023-07-20T08:42:06;103.17;;;92.57;;
8048;SDS011;20935;42.660;23.342;2023-07-20T08:44:56;103.57;;;92.67;;
8048;SDS011;20935;42.660;23.342;2023-07-20T08:47:42;104.13;;;93.07;;
8048;SDS011;20935;42.660;23.342;2023-07-20T08:50:30;106.63;;;95.53;;
8048;SDS011;20935;42.660;23.342;2023-07-20T08:53:15;105.13;;;94.43;;
8048;SDS011;20935;42.660;23.342;2023-07-20T08:56:01;107.80;;;96.87;;
8048;SDS011;20935;42.660;23.342;2023-07-20T08:58:48;106.37;;;95.63;;
8048;SDS011;20935;42.660;23.342;2023-07-20T09:01:35;108.50;;;97.27;;
8048;SDS011;20935;42.660;23.342;2023-07-20T09:04:21;109.93;;;98.67;;
8048;SDS011;20935;42.660;23.342;2023-07-20T09:07:06;108.00;;;96.50;;
8048;SDS011;20935;42.660;23.342;2023-07-20T09:09:51;114.70;;;102.90;;
8048;SDS011;20935;42.660;23.342;2023-07-20T09:12:37;111.00;;;99.60;;
8048;SDS011;20935;42.660;23.342;2023-07-20T09:15:24;112.33;;;100.53;;
8048;SDS011;20935;42.660;23.342;2023-07-20T09:18:12;110.60;;;98.53;;
8048;SDS011;20935;42.660;23.342;2023-07-20T09:21:01;115.40;;;103.07;;
8048;SDS011;20935;42.660;23.342;2023-07-20T09:23:47;113.47;;;101.23;;
8048;SDS011;20935;42.660;23.342;2023-07-20T09:26:40;111.43;;;99.90;;
8048;SDS011;20935;42.660;23.342;2023-07-20T09:29:26;115.77;;;103.60;;
8048;SDS011;20935;42.660;23.342;2023-07-20T09:32:11;111.73;;;100.13;;
8048;SDS011;20935;42.660;23.342;2023-07-20T09:34:58;115.90;;;103.57;;
8048;SDS011;20935;42.660;23.342;2023-07-20T09:37:48;114.47;;;102.30;;
8048;SDS011;20935;42.660;23.342;2023-07-20T09:40:37;112.27;;;100.63;;
8048;SDS011;20935;42.660;23.342;2023-07-20T09:43:24;113.00;;;100.87;;
8048;SDS011;20935;42.660;23.342;2023-07-20T09:46:14;113.77;;;101.87;;
8048;SDS011;20935;42.660;23.342;2023-07-20T09:49:01;108.17;;;96.47;;
8048;SDS011;20935;42.660;23.342;2023-07-20T09:51:47;109.90;;;98.50;;
8048;SDS011;20935;42.660;23.342;2023-07-20T09:54:35;111.47;;;99.67;;
8048;SDS011;20935;42.660;23.342;2023-07-20T09:57:23;108.73;;;96.47;;
8048;SDS011;20935;42.660;23.342;2023-07-20T10:00:12;113.27;;;101.50;;
8048;SDS011;20935;42.660;23.342;2023-07-20T10:02:59;110.83;;;99.03;;
8048;SDS011;20935;42.660;23.342;2023-07-20T10:05:51;113.10;;;100.73;;
8048;SDS011;20935;42.660;23.342;2023-07-20T10:08:41;111.93;;;100.27;;
8048;SDS011;20935;42.660;23.342;2023-07-20T10:11:28;113.17;;;101.20;;
8048;SDS011;20935;42.660;23.342;2023-07-20T10:14:18;109.93;;;97.93;;
8048;SDS011;20935;42.660;23.342;2023-07-20T10:17:05;111.20;;;99.67;;
8048;SDS011;20935;42.660;23.342;2023-07-20T10:19:54;108.93;;;97.30;;
8048;SDS011;20935;42.660;23.342;2023-07-20T10:22:41;112.47;;;100.70;;
8048;SDS011;20935;42.660;23.342;2023-07-20T10:25:31;109.90;;;98.40;;
8048;SDS011;20935;42.660;23.342;2023-07-20T10:28:21;110.33;;;98.77;;
8048;SDS011;20935;42.660;23.342;2023-07-20T10:31:08;108.60;;;96.40;;
8048;SDS011;20935;42.660;23.342;2023-07-20T10:33:56;100.73;;;89.93;;
8048;SDS011;20935;42.660;23.342;2023-07-20T10:36:45;96.17;;;85.67;;
8048;SDS011;20935;42.660;23.342;2023-07-20T10:39:34;86.60;;;77.17;;
8048;SDS011;20935;42.660;23.342;2023-07-20T10:42:21;84.43;;;75.33;;
8048;SDS011;20935;42.660;23.342;2023-07-20T10:45:07;80.47;;;71.93;;
8048;SDS011;20935;42.660;23.342;2023-07-20T10:47:53;76.13;;;67.53;;
8048;SDS011;20935;42.660;23.342;2023-07-20T10:50:41;74.47;;;66.27;;
8048;SDS011;20935;42.660;23.342;2023-07-20T10:53:28;74.10;;;66.57;;
8048;SDS011;20935;42.660;23.342;2023-07-20T10:56:14;70.70;;;63.33;;
8048;SDS011;20935;42.660;23.342;2023-07-20T10:59:17;76.27;;;68.23;;
8048;SDS011;20935;42.660;23.342;2023-07-20T11:02:05;74.50;;;66.17;;
8048;SDS011;20935;42.660;23.342;2023-07-20T11:04:52;73.63;;;65.73;;
8048;SDS011;20935;42.660;23.342;2023-07-20T11:07:37;78.30;;;70.17;;
8048;SDS011;20935;42.660;23.342;2023-07-20T11:10:23;80.33;;;71.83;;
8048;SDS011;20935;42.660;23.342;2023-07-20T11:13:18;82.93;;;74.60;;
8048;SDS011;20935;42.660;23.342;2023-07-20T11:16:06;78.17;;;69.83;;
8048;SDS011;20935;42.660;23.342;2023-07-20T11:18:51;77.63;;;69.33;;
8048;SDS011;20935;42.660;23.342;2023-07-20T11:21:40;77.07;;;68.83;;
8048;SDS011;20935;42.660;23.342;2023-07-20T11:24:25;80.23;;;71.60;;
8048;SDS011;20935;42.660;23.342;2023-07-20T11:27:11;80.10;;;71.93;;
8048;SDS011;20935;42.660;23.342;2023-07-20T11:29:56;80.53;;;72.17;;
8048;SDS011;20935;42.660;23.342;2023-07-20T11:32:48;84.13;;;75.43;;
8048;SDS011;20935;42.660;23.342;2023-07-20T11:35:35;85.23;;;76.47;;
8048;SDS011;20935;42.660;23.342;2023-07-20T11:38:21;84.63;;;75.77;;
8048;SDS011;20935;42.660;23.342;2023-07-20T11:41:08;86.33;;;77.27;;
8048;SDS011;20935;42.660;23.342;2023-07-20T11:43:54;92.73;;;82.80;;
8048;SDS011;20935;42.660;23.342;2023-07-20T11:46:40;89.47;;;79.97;;
8048;SDS011;20935;42.660;23.342;2023-07-20T11:49:29;90.43;;;80.93;;
8048;SDS011;20935;42.660;23.342;2023-07-20T11:52:15;94.90;;;84.93;;
8048;SDS011;20935;42.660;23.342;2023-07-20T11:55:01;94.60;;;84.83;;
8048;SDS011;20935;42.660;23.342;2023-07-20T11:58:00;91.53;;;82.10;;
8048;SDS011;20935;42.660;23.342;2023-07-20T12:00:47;98.63;;;88.23;;
8048;SDS011;20935;42.660;23.342;2023-07-20T12:03:32;99.90;;;89.57;;
8048;SDS011;20935;42.660;23.342;2023-07-20T12:06:22;98.40;;;87.80;;
8048;SDS011;20935;42.660;23.342;2023-07-20T12:09:12;96.60;;;86.77;;
8048;SDS011;20935;42.660;23.342;2023-07-20T12:11:59;97.93;;;87.67;;
8048;SDS011;20935;42.660;23.342;2023-07-20T12:14:44;101.30;;;90.47;;
8048;SDS011;20935;42.660;23.342;2023-07-20T12:17:30;100.43;;;90.03;;
8048;SDS011;20935;42.660;23.342;2023-07-20T12:20:28;108.10;;;96.63;;
8048;SDS011;20935;42.660;23.342;2023-07-20T12:23:18;109.07;;;97.20;;
8048;SDS011;20935;42.660;23.342;2023-07-20T12:26:06;100.80;;;90.03;;
8048;SDS011;20935;42.660;23.342;2023-07-20T12:28:53;106.27;;;95.20;;
8048;SDS011;20935;42.660;23.342;2023-07-20T12:31:38;110.37;;;98.63;;
8048;SDS011;20935;42.660;23.342;2023-07-20T12:34:23;109.90;;;98.43;;
8048;SDS011;20935;42.660;23.342;2023-07-20T12:37:09;109.57;;;98.30;;
8048;SDS011;20935;42.660;23.342;2023-07-20T12:39:56;113.57;;;102.07;;
8048;SDS011;20935;42.660;23.342;2023-07-20T12:42:41;113.53;;;101.53;;
8048;SDS011;20935;42.660;23.342;2023-07-20T12:45:26;110.53;;;99.03;;
8048;SDS011;20935;42.660;23.342;2023-07-20T12:48:12;119.03;;;106.63;;
8048;SDS011;20935;42.660;23.342;2023-07-20T12:50:57;113.63;;;102.03;;
8048;SDS011;20935;42.660;23.342;2023-07-20T12:53:43;112.00;;;100.03;;
8048;SDS011;20935;42.660;23.342;2023-07-20T12:56:30;114.10;;;102.47;;
8048;SDS011;20935;42.660;23.342;2023-07-20T12:59:15;94.10;;;84.40;;
8048;SDS011;20935;42.660;23.342;2023-07-20T13:02:01;105.73;;;94.70;;
8048;SDS011;20935;42.660;23.342;2023-07-20T13:04:46;96.10;;;85.63;;
8048;SDS011;20935;42.660;23.342;2023-07-20T13:07:32;98.00;;;87.80;;
8048;SDS011;20935;42.660;23.342;2023-07-20T13:10:18;95.77;;;85.87;;
8048;SDS011;20935;42.660;23.342;2023-07-20T13:13:05;100.97;;;90.43;;
8048;SDS011;20935;42.660;23.342;2023-07-20T13:15:51;94.53;;;84.33;;
8048;SDS011;20935;42.660;23.342;2023-07-20T13:18:38;102.13;;;83.73;;
8048;SDS011;20935;42.660;23.342;2023-07-20T13:21:23;97.03;;;86.73;;
8048;SDS011;20935;42.660;23.342;2023-07-20T13:24:09;100.23;;;89.53;;
8048;SDS011;20935;42.660;23.342;2023-07-20T13:26:54;98.80;;;88.03;;
8048;SDS011;20935;42.660;23.342;2023-07-20T13:29:41;93.70;;;83.93;;
8048;SDS011;20935;42.660;23.342;2023-07-20T13:32:27;100.97;;;90.37;;
8048;SDS011;20935;42.660;23.342;2023-07-20T13:35:12;96.93;;;87.07;;
8048;SDS011;20935;42.660;23.342;2023-07-20T13:37:58;100.80;;;89.90;;
8048;SDS011;20935;42.660;23.342;2023-07-20T13:40:43;96.57;;;86.30;;
8048;SDS011;20935;42.660;23.342;2023-07-20T13:43:29;101.77;;;90.97;;
8048;SDS011;20935;42.660;23.342;2023-07-20T13:46:16;101.27;;;90.53;;
8048;SDS011;20935;42.660;23.342;2023-07-20T13:49:01;105.63;;;94.23;;
8048;SDS011;20935;42.660;23.342;2023-07-20T13:51:46;107.47;;;96.33;;
8048;SDS011;20935;42.660;23.342;2023-07-20T13:54:32;104.73;;;93.47;;
8048;SDS011;20935;42.660;23.342;2023-07-20T13:57:17;108.17;;;96.80;;
8048;SDS011;20935;42.660;23.342;2023-07-20T14:00:03;109.93;;;98.67;;
8048;SDS011;20935;42.660;23.342;2023-07-20T14:02:53;110.93;;;98.93;;
8048;SDS011;20935;42.660;23.342;2023-07-20T14:05:38;108.70;;;97.30;;
8048;SDS011;20935;42.660;23.342;2023-07-20T14:08:24;109.23;;;97.90;;
8048;SDS011;20935;42.660;23.342;2023-07-20T14:11:09;107.83;;;96.33;;
8048;SDS011;20935;42.660;23.342;2023-07-20T14:13:54;107.57;;;96.40;;
8048;SDS011;20935;42.660;23.342;2023-07-20T14:16:42;110.20;;;98.83;;
8048;SDS011;20935;42.660;23.342;2023-07-20T14:19:28;111.23;;;99.70;;
8048;SDS011;20935;42.660;23.342;2023-07-20T14:22:14;112.83;;;101.07;;
8048;SDS011;20935;42.660;23.342;2023-07-20T14:25:00;107.30;;;96.17;;
8048;SDS011;20935;42.660;23.342;2023-07-20T14:27:45;115.23;;;103.10;;
8048;SDS011;20935;42.660;23.342;2023-07-20T14:30:31;109.40;;;98.20;;
8048;SDS011;20935;42.660;23.342;2023-07-20T14:33:16;112.40;;;100.43;;
8048;SDS011;20935;42.660;23.342;2023-07-20T14:36:03;116.43;;;104.20;;
8048;SDS011;20935;42.660;23.342;2023-07-20T14:38:48;109.27;;;97.80;;
8048;SDS011;20935;42.660;23.342;2023-07-20T14:41:34;114.83;;;102.83;;
8048;SDS011;20935;42.660;23.342;2023-07-20T14:44:19;114.33;;;102.33;;
8048;SDS011;20935;42.660;23.342;2023-07-20T14:47:05;117.50;;;105.20;;
8048;SDS011;20935;42.660;23.342;2023-07-20T14:49:51;121.70;;;108.73;;
8048;SDS011;20935;42.660;23.342;2023-07-20T14:52:38;119.47;;;107.23;;
8048;SDS011;20935;42.660;23.342;2023-07-20T14:55:23;119.97;;;107.57;;
8048;SDS011;20935;42.660;23.342;2023-07-20T14:58:09;119.17;;;106.43;;
8048;SDS011;20935;42.660;23.342;2023-07-20T15:00:54;122.07;;;109.10;;
8048;SDS011;20935;42.660;23.342;2023-07-20T15:03:39;124.90;;;111.80;;
8048;SDS011;20935;42.660;23.342;2023-07-20T15:06:25;121.03;;;107.93;;
8048;SDS011;20935;42.660;23.342;2023-07-20T15:09:15;124.07;;;110.90;;
8048;SDS011;20935;42.660;23.342;2023-07-20T15:12:00;122.77;;;109.87;;
8048;SDS011;20935;42.660;23.342;2023-07-20T15:14:50;127.80;;;114.73;;
8048;SDS011;20935;42.660;23.342;2023-07-20T15:17:48;123.83;;;110.43;;
8048;SDS011;20935;42.660;23.342;2023-07-20T15:20:34;128.27;;;115.00;;
8048;SDS011;20935;42.660;23.342;2023-07-20T15:23:19;126.80;;;113.70;;
8048;SDS011;20935;42.660;23.342;2023-07-20T15:26:06;125.93;;;112.57;;
8048;SDS011;20935;42.660;23.342;2023-07-20T15:28:51;135.00;;;120.63;;
8048;SDS011;20935;42.660;23.342;2023-07-20T15:31:36;122.37;;;109.20;;
8048;SDS011;20935;42.660;23.342;2023-07-20T15:34:22;126.37;;;113.13;;
8048;SDS011;20935;42.660;23.342;2023-07-20T15:37:08;132.07;;;118.23;;
8048;SDS011;20935;42.660;23.342;2023-07-20T15:39:53;130.23;;;116.80;;
8048;SDS011;20935;42.660;23.342;2023-07-20T15:42:40;133.17;;;119.23;;
8048;SDS011;20935;42.660;23.342;2023-07-20T15:45:27;123.73;;;110.70;;
8048;SDS011;20935;42.660;23.342;2023-07-20T15:48:13;109.07;;;97.70;;
8048;SDS011;20935;42.660;23.342;2023-07-20T15:50:59;104.63;;;93.63;;
8048;SDS011;20935;42.660;23.342;2023-07-20T15:53:44;106.20;;;94.90;;
8048;SDS011;20935;42.660;23.342;2023-07-20T15:56:29;95.83;;;85.57;;
8048;SDS011;20935;42.660;23.342;2023-07-20T15:59:16;93.53;;;83.57;;
8048;SDS011;20935;42.660;23.342;2023-07-20T16:02:02;88.23;;;78.63;;
8048;SDS011;20935;42.660;23.342;2023-07-20T16:04:48;88.33;;;78.73;;
8048;SDS011;20935;42.660;23.342;2023-07-20T16:07:34;85.87;;;76.60;;
8048;SDS011;20935;42.660;23.342;2023-07-20T16:10:19;90.83;;;81.03;;
8048;SDS011;20935;42.660;23.342;2023-07-20T16:13:04;92.83;;;82.90;;
8048;SDS011;20935;42.660;23.342;2023-07-20T16:15:51;91.57;;;81.97;;